Time;durP1;ratioP1;P1;durP2;ratioP2;P2;SDS_P1;SDS_P2;PMS_P1;PMS_P2;Temp;Humidity;BMP_temperature;BMP_pressure;BME280_temperature;BME280_humidity;BME280_pressure;Samples;Min_cycle;Max_cycle;Signal;HPM_P1;HPM_P2
2024/04/13 00:00:23;;;;;;;3.58;1.52;;;13.90;99.90;;;;;;5452204;26;20039;-60
2024/04/13 00:02:50;;;;;;;3.70;1.50;;;13.90;99.90;;;;;;5455577;26;20471;-60
2024/04/13 00:05:17;;;;;;;4.18;1.60;;;13.90;99.90;;;;;;5455969;26;20011;-60
2024/04/13 00:07:44;;;;;;;4.88;1.40;;;13.90;99.90;;;;;;5455757;26;20003;-60
2024/04/13 00:10:11;;;;;;;4.03;1.63;;;13.90;99.90;;;;;;5455248;26;20003;-60
2024/04/13 00:12:37;;;;;;;6.35;1.63;;;13.90;99.90;;;;;;5455499;26;20007;-60
2024/04/13 00:15:05;;;;;;;4.68;1.67;;;13.90;99.90;;;;;;5455454;26;20408;-60
2024/04/13 00:17:32;;;;;;;3.75;1.55;;;13.90;99.90;;;;;;5455829;26;20003;-60
2024/04/13 00:19:59;;;;;;;5.50;1.90;;;13.80;99.90;;;;;;5455756;26;20002;-60
2024/04/13 00:22:26;;;;;;;6.60;1.63;;;13.80;99.90;;;;;;5455644;26;20079;-61
2024/04/13 00:24:52;;;;;;;3.30;1.65;;;13.80;99.90;;;;;;5455484;26;20017;-60
2024/04/13 00:27:19;;;;;;;4.10;1.98;;;13.80;99.90;;;;;;5455530;26;20007;-60
2024/04/13 00:29:46;;;;;;;6.40;1.98;;;13.80;99.90;;;;;;5453668;26;20030;-60
2024/04/13 00:32:13;;;;;;;4.30;1.83;;;13.80;99.90;;;;;;5455424;26;20031;-60
2024/04/13 00:34:40;;;;;;;5.57;1.75;;;13.70;99.90;;;;;;5455381;26;20336;-60
2024/04/13 00:37:07;;;;;;;4.35;1.65;;;13.70;99.90;;;;;;5453451;26;20433;-60
2024/04/13 00:39:34;;;;;;;5.78;1.65;;;13.70;99.90;;;;;;5455295;26;20332;-60
2024/04/13 00:42:01;;;;;;;5.03;1.85;;;13.70;99.90;;;;;;5455334;26;20014;-60
2024/04/13 00:44:28;;;;;;;6.35;2.45;;;13.70;99.90;;;;;;5455278;26;20087;-60
2024/04/13 00:47:04;;;;;;;3.72;1.77;;;13.70;99.90;;;;;;5453388;26;20003;-60
2024/04/13 00:49:32;;;;;;;5.82;2.20;;;13.70;99.90;;;;;;5455564;26;19999;-60
2024/04/13 00:51:58;;;;;;;3.90;1.80;;;13.70;99.90;;;;;;5455233;26;20027;-60
2024/04/13 00:54:26;;;;;;;7.22;2.10;;;13.70;99.90;;;;;;5455082;26;20023;-60
2024/04/13 00:56:53;;;;;;;7.43;1.98;;;13.60;99.90;;;;;;5454986;26;20003;-60
2024/04/13 00:59:22;;;;;;;6.45;2.22;;;13.60;99.90;;;;;;5455323;26;20079;-61
2024/04/13 01:01:49;;;;;;;6.38;2.13;;;13.60;99.90;;;;;;5454989;26;20079;-60
2024/04/13 01:04:16;;;;;;;5.07;2.30;;;13.60;99.90;;;;;;5454896;26;20002;-60
2024/04/13 01:06:44;;;;;;;7.10;2.22;;;13.60;99.90;;;;;;5455170;26;20007;-60
2024/04/13 01:09:14;;;;;;;4.55;1.73;;;13.60;99.90;;;;;;5455005;26;20504;-62
2024/04/13 01:11:42;;;;;;;4.60;2.20;;;13.60;99.90;;;;;;5453114;26;20014;-61
2024/04/13 01:14:10;;;;;;;7.60;2.78;;;13.60;99.90;;;;;;5454009;26;20003;-60
2024/04/13 01:16:38;;;;;;;6.07;2.08;;;13.60;99.90;;;;;;5454905;26;20460;-60
2024/04/13 01:19:06;;;;;;;6.15;2.25;;;13.60;99.90;;;;;;5454993;26;20449;-60
2024/04/13 01:21:33;;;;;;;6.20;2.40;;;13.60;99.90;;;;;;5454982;26;20075;-60
2024/04/13 01:24:00;;;;;;;5.43;2.30;;;13.50;99.90;;;;;;5454587;26;20003;-61
2024/04/13 01:26:27;;;;;;;6.97;2.45;;;13.50;99.90;;;;;;5455005;26;20003;-60
2024/04/13 01:28:55;;;;;;;7.13;2.53;;;13.50;99.90;;;;;;5454754;26;19999;-60
2024/04/13 01:31:22;;;;;;;4.95;2.10;;;13.50;99.90;;;;;;5454504;26;20046;-60
2024/04/13 01:33:49;;;;;;;6.72;2.30;;;13.50;99.90;;;;;;5454713;26;20017;-60
2024/04/13 01:36:16;;;;;;;7.20;2.42;;;13.50;99.90;;;;;;5454587;26;20003;-61
2024/04/13 01:38:43;;;;;;;6.32;2.42;;;13.40;99.90;;;;;;5454583;26;20002;-60
2024/04/13 01:41:10;;;;;;;6.28;2.40;;;13.40;99.90;;;;;;5454483;26;20006;-60
2024/04/13 01:43:37;;;;;;;5.82;2.38;;;13.40;99.90;;;;;;5454408;26;20002;-60
2024/04/13 01:46:05;;;;;;;6.28;2.40;;;13.40;99.90;;;;;;5454555;26;20013;-60
2024/04/13 01:48:33;;;;;;;6.13;2.50;;;13.40;99.90;;;;;;5454368;26;20015;-60
2024/04/13 01:51:00;;;;;;;7.55;2.20;;;13.40;99.90;;;;;;5454541;26;20051;-60
2024/04/13 01:53:27;;;;;;;5.72;2.60;;;13.40;99.90;;;;;;5454676;26;20003;-60
2024/04/13 01:55:54;;;;;;;4.38;2.25;;;13.40;99.90;;;;;;5454271;26;20038;-60
2024/04/13 01:58:21;;;;;;;5.47;2.40;;;13.40;99.90;;;;;;5454318;26;20007;-60
2024/04/13 02:00:48;;;;;;;4.65;2.20;;;13.40;99.90;;;;;;5454257;26;20051;-60
2024/04/13 02:03:15;;;;;;;7.20;2.60;;;13.30;99.90;;;;;;5454211;26;20003;-60
2024/04/13 02:05:43;;;;;;;5.70;2.25;;;13.30;99.90;;;;;;5454074;26;20083;-60
2024/04/13 02:08:10;;;;;;;5.82;2.33;;;13.30;99.90;;;;;;5454155;26;20459;-60
2024/04/13 02:10:37;;;;;;;8.10;3.03;;;13.20;99.90;;;;;;5454029;26;20007;-60
2024/04/13 02:13:06;;;;;;;6.95;2.53;;;13.20;99.90;;;;;;5454487;26;20448;-61
2024/04/13 02:15:33;;;;;;;5.50;2.20;;;13.20;99.90;;;;;;5453828;26;20452;-60
2024/04/13 02:18:00;;;;;;;5.82;2.30;;;13.20;99.90;;;;;;5422598;26;20002;-60
2024/04/13 02:20:28;;;;;;;7.68;2.78;;;13.20;99.90;;;;;;5453956;26;20353;-61
2024/04/13 02:22:55;;;;;;;6.45;2.83;;;13.20;99.90;;;;;;5454152;26;20003;-60
2024/04/13 02:25:22;;;;;;;6.45;2.78;;;13.10;99.90;;;;;;5451981;26;20006;-60
2024/04/13 02:27:48;;;;;;;5.13;2.63;;;13.10;99.90;;;;;;5453802;26;20002;-60
2024/04/13 02:30:15;;;;;;;5.50;2.70;;;13.10;99.90;;;;;;5453921;26;20409;-60
2024/04/13 02:32:42;;;;;;;5.38;2.15;;;13.10;99.90;;;;;;5453792;26;20335;-60
2024/04/13 02:35:09;;;;;;;6.32;2.60;;;13.10;99.90;;;;;;5453951;26;20390;-60
2024/04/13 02:37:36;;;;;;;8.25;2.72;;;13.00;99.90;;;;;;5453527;26;19999;-60
2024/04/13 02:40:07;;;;;;;6.18;2.58;;;13.00;99.90;;;;;;5453722;26;20007;-60
2024/04/13 02:42:36;;;;;;;6.40;2.35;;;12.90;99.90;;;;;;5453609;26;20003;-60
2024/04/13 02:45:03;;;;;;;10.13;2.63;;;12.90;99.90;;;;;;5453423;26;20007;-60
2024/04/13 02:47:30;;;;;;;7.05;2.60;;;12.90;99.90;;;;;;5453448;26;20071;-60
2024/04/13 02:49:58;;;;;;;7.60;2.83;;;12.90;99.90;;;;;;5451625;26;20078;-60
2024/04/13 02:52:25;;;;;;;9.13;3.25;;;12.90;99.90;;;;;;5451724;26;19999;-60
2024/04/13 02:54:53;;;;;;;6.28;2.60;;;12.80;99.90;;;;;;5453565;26;20472;-60
2024/04/13 02:57:19;;;;;;;12.43;2.78;;;12.80;99.90;;;;;;5453370;26;19999;-60
2024/04/13 02:59:46;;;;;;;11.23;2.97;;;12.90;99.90;;;;;;5453425;26;20336;-60
2024/04/13 03:02:13;;;;;;;6.80;2.83;;;12.80;99.90;;;;;;5453361;26;20038;-60
2024/04/13 03:04:40;;;;;;;7.90;2.75;;;12.80;99.90;;;;;;5453460;26;20018;-60
2024/04/13 03:07:07;;;;;;;9.63;2.75;;;12.80;99.90;;;;;;5453082;26;20018;-60
2024/04/13 03:09:34;;;;;;;7.53;2.83;;;12.80;99.90;;;;;;5453135;26;20017;-60
2024/04/13 03:12:01;;;;;;;6.32;3.10;;;12.80;99.90;;;;;;5451400;26;20052;-60
2024/04/13 03:14:29;;;;;;;9.10;2.85;;;12.80;99.90;;;;;;5453038;26;20003;-60
2024/04/13 03:16:56;;;;;;;8.35;3.20;;;12.80;99.90;;;;;;5453037;26;19998;-60
2024/04/13 03:19:23;;;;;;;10.32;3.20;;;12.70;99.90;;;;;;5452975;26;20459;-60
2024/04/13 03:21:50;;;;;;;6.70;2.55;;;12.80;99.90;;;;;;5453007;26;19999;-60
2024/04/13 03:24:16;;;;;;;11.52;3.13;;;12.80;99.90;;;;;;5452826;26;20003;-65
2024/04/13 03:26:46;;;;;;;6.22;2.90;;;12.70;99.90;;;;;;5452976;26;20039;-65
2024/04/13 03:29:12;;;;;;;11.27;3.65;;;12.80;99.90;;;;;;5453003;26;20017;-66
2024/04/13 03:31:41;;;;;;;8.70;3.00;;;12.70;99.90;;;;;;5452812;26;19998;-65
2024/04/13 03:34:08;;;;;;;7.78;3.28;;;12.70;99.90;;;;;;5452649;26;20003;-65
2024/04/13 03:36:35;;;;;;;9.75;3.10;;;12.70;99.90;;;;;;5454151;26;20003;-65
2024/04/13 03:39:02;;;;;;;8.98;3.35;;;12.70;99.90;;;;;;5456396;26;20031;-66
2024/04/13 03:41:29;;;;;;;8.45;3.15;;;12.70;99.90;;;;;;5456312;26;20083;-66
2024/04/13 03:43:56;;;;;;;9.27;3.33;;;12.70;99.90;;;;;;5456202;26;20499;-66
2024/04/13 03:46:23;;;;;;;7.55;3.20;;;12.70;99.90;;;;;;5456110;26;20007;-65
2024/04/13 03:48:50;;;;;;;8.75;3.80;;;12.60;99.90;;;;;;5456018;26;20033;-64
2024/04/13 03:51:17;;;;;;;6.70;3.10;;;12.60;99.90;;;;;;5456218;26;20003;-66
2024/04/13 03:53:44;;;;;;;8.38;3.83;;;12.60;99.90;;;;;;5456163;26;20002;-65
2024/04/13 03:56:11;;;;;;;10.50;4.00;;;12.60;99.90;;;;;;5455943;26;20014;-64
2024/04/13 03:58:38;;;;;;;7.53;3.60;;;12.60;99.90;;;;;;5456129;26;20452;-65
2024/04/13 04:01:05;;;;;;;8.73;3.60;;;12.60;99.90;;;;;;5455908;26;20079;-65
2024/04/13 04:03:32;;;;;;;10.93;3.75;;;12.50;99.90;;;;;;5455936;26;20006;-64
2024/04/13 04:05:59;;;;;;;8.15;3.88;;;12.50;99.90;;;;;;5455755;26;20015;-65
2024/04/13 04:08:26;;;;;;;10.80;4.43;;;12.50;99.90;;;;;;5456056;26;20015;-64
2024/04/13 04:10:53;;;;;;;11.88;4.38;;;12.50;99.90;;;;;;5456158;26;20399;-64
2024/04/13 04:13:23;;;;;;;10.40;4.35;;;12.50;99.90;;;;;;5456134;26;20011;-64
2024/04/13 04:15:51;;;;;;;13.52;4.03;;;12.40;99.90;;;;;;5455532;26;20003;-64
2024/04/13 04:18:18;;;;;;;8.77;4.00;;;12.40;99.90;;;;;;5455807;26;20019;-64
2024/04/13 04:20:45;;;;;;;9.40;4.18;;;12.40;99.90;;;;;;5454032;26;20048;-64
2024/04/13 04:23:13;;;;;;;14.32;4.85;;;12.40;99.90;;;;;;5455730;26;20018;-64
2024/04/13 04:25:39;;;;;;;11.07;4.50;;;12.30;99.90;;;;;;5455224;26;20440;-64
2024/04/13 04:28:06;;;;;;;10.98;4.80;;;12.30;99.90;;;;;;5454026;26;20341;-64
2024/04/13 04:30:33;;;;;;;9.82;4.45;;;12.30;99.90;;;;;;5455452;26;20344;-65
2024/04/13 04:33:00;;;;;;;9.73;4.32;;;12.30;99.90;;;;;;5455682;26;20003;-63
2024/04/13 04:35:27;;;;;;;11.07;4.35;;;12.30;99.90;;;;;;5455584;26;20003;-63
2024/04/13 04:37:54;;;;;;;13.23;5.03;;;12.20;99.90;;;;;;5455649;26;20015;-65
2024/04/13 04:40:22;;;;;;;10.68;4.68;;;12.30;99.90;;;;;;5455923;26;20011;-64
2024/04/13 04:42:49;;;;;;;10.20;4.50;;;12.20;99.90;;;;;;5453466;26;20003;-65
2024/04/13 04:45:16;;;;;;;9.48;4.35;;;12.20;99.90;;;;;;5455185;26;20331;-60
2024/04/13 04:47:44;;;;;;;10.48;4.90;;;12.20;99.90;;;;;;5453971;26;20018;-60
2024/04/13 04:50:12;;;;;;;9.75;4.45;;;12.20;99.90;;;;;;5455284;26;19999;-60
2024/04/13 04:52:39;;;;;;;10.88;5.13;;;12.10;99.90;;;;;;5455327;26;20076;-61
2024/04/13 04:55:09;;;;;;;10.05;4.72;;;12.10;99.90;;;;;;5455355;26;20017;-62
2024/04/13 04:57:36;;;;;;;11.20;4.90;;;12.10;99.90;;;;;;5455116;26;20079;-60
2024/04/13 05:00:04;;;;;;;11.65;6.30;;;12.10;99.90;;;;;;5455132;26;20007;-60
2024/04/13 05:02:31;;;;;;;13.57;5.75;;;12.10;99.90;;;;;;5455271;26;20003;-61
2024/04/13 05:04:58;;;;;;;13.20;5.63;;;12.10;99.90;;;;;;5455276;26;20448;-61
2024/04/13 05:07:25;;;;;;;14.90;6.50;;;12.00;99.90;;;;;;5455196;26;20023;-61
2024/04/13 05:09:52;;;;;;;10.50;7.07;;;12.00;99.90;;;;;;5455003;26;20027;-61
2024/04/13 05:12:19;;;;;;;16.38;7.22;;;12.00;99.90;;;;;;5453398;26;20011;-61
2024/04/13 05:14:46;;;;;;;11.27;6.97;;;12.00;99.90;;;;;;5454980;26;20010;-61
2024/04/13 05:17:13;;;;;;;12.32;7.28;;;12.00;99.90;;;;;;5455020;26;20044;-61
2024/04/13 05:19:40;;;;;;;12.93;7.75;;;12.00;99.90;;;;;;5454993;26;20413;-61
2024/04/13 05:22:07;;;;;;;13.82;7.82;;;12.00;99.90;;;;;;5455018;26;19998;-61
2024/04/13 05:24:34;;;;;;;11.30;6.90;;;12.00;99.90;;;;;;5454562;26;20079;-61
2024/04/13 05:27:05;;;;;;;12.68;7.82;;;12.00;99.90;;;;;;5454776;26;20002;-61
2024/04/13 05:29:34;;;;;;;12.90;8.38;;;12.00;99.90;;;;;;5455023;26;19999;-61
2024/04/13 05:32:02;;;;;;;13.38;8.13;;;12.00;99.90;;;;;;5454925;26;20313;-61
2024/04/13 05:34:28;;;;;;;15.60;8.65;;;12.00;99.90;;;;;;5454850;26;20002;-61
2024/04/13 05:36:55;;;;;;;13.60;8.65;;;12.00;99.90;;;;;;5454552;26;20075;-60
2024/04/13 05:39:22;;;;;;;14.25;8.63;;;12.10;99.90;;;;;;5454627;26;20075;-60
2024/04/13 05:41:49;;;;;;;16.77;9.40;;;12.10;99.90;;;;;;5454618;26;20013;-60
2024/04/13 05:44:16;;;;;;;17.52;10.27;;;12.10;99.90;;;;;;5454514;26;20467;-60
2024/04/13 05:46:43;;;;;;;16.77;9.75;;;12.20;99.90;;;;;;5454530;26;20047;-60
2024/04/13 05:49:10;;;;;;;15.48;10.68;;;12.20;99.90;;;;;;5454619;26;20448;-60
2024/04/13 05:51:37;;;;;;;18.83;10.88;;;12.30;99.90;;;;;;5454721;26;20520;-60
2024/04/13 05:54:04;;;;;;;14.70;10.82;;;12.30;99.90;;;;;;5454528;26;20003;-60
2024/04/13 05:56:31;;;;;;;21.08;11.55;;;12.40;99.90;;;;;;5454795;26;20036;-60
2024/04/13 05:58:58;;;;;;;15.98;11.50;;;12.40;99.90;;;;;;5454112;26;20079;-60
2024/04/13 06:01:25;;;;;;;16.95;11.73;;;12.50;99.90;;;;;;5454497;26;20093;-60
2024/04/13 06:03:53;;;;;;;19.08;12.15;;;12.50;99.90;;;;;;5454330;26;19999;-60
2024/04/13 06:06:20;;;;;;;17.92;11.52;;;12.60;99.90;;;;;;5454211;26;20023;-60
2024/04/13 06:08:47;;;;;;;16.52;10.88;;;12.60;99.90;;;;;;5454240;26;20071;-60
2024/04/13 06:11:14;;;;;;;15.45;10.73;;;12.60;99.90;;;;;;5454214;26;20036;-60
2024/04/13 06:13:41;;;;;;;13.48;9.48;;;12.70;99.90;;;;;;5454190;26;20332;-60
2024/04/13 06:16:08;;;;;;;17.08;9.32;;;12.70;99.90;;;;;;5453918;26;20048;-60
2024/04/13 06:18:35;;;;;;;11.27;7.85;;;12.80;99.90;;;;;;5454225;26;19995;-61
2024/04/13 06:21:02;;;;;;;11.80;7.35;;;12.80;99.90;;;;;;5454066;26;19999;-61
2024/04/13 06:23:29;;;;;;;11.05;7.00;;;12.90;99.90;;;;;;5452257;26;19999;-61
2024/04/13 06:25:56;;;;;;;10.70;6.75;;;12.90;99.90;;;;;;5453475;26;20470;-61
2024/04/13 06:28:23;;;;;;;10.70;6.70;;;12.90;99.90;;;;;;5453952;26;19999;-61
2024/04/13 06:30:51;;;;;;;11.98;6.60;;;13.00;99.90;;;;;;5453590;26;20026;-61
2024/04/13 06:33:18;;;;;;;9.15;6.22;;;13.10;99.90;;;;;;5453915;26;20060;-60
2024/04/13 06:35:46;;;;;;;12.80;6.47;;;13.10;99.90;;;;;;5453463;26;20014;-62
2024/04/13 06:38:12;;;;;;;11.13;6.53;;;13.20;99.90;;;;;;5453316;26;20003;-62
2024/04/13 06:40:39;;;;;;;13.38;6.43;;;13.20;99.90;;;;;;5453329;26;20013;-64
2024/04/13 06:43:06;;;;;;;9.80;6.20;;;13.20;99.90;;;;;;5453541;26;20010;-62
2024/04/13 06:45:35;;;;;;;10.65;6.13;;;13.30;99.90;;;;;;5451427;26;20003;-62
2024/04/13 06:48:02;;;;;;;8.75;5.53;;;13.40;99.90;;;;;;5453348;26;20451;-64
2024/04/13 06:50:29;;;;;;;9.20;5.82;;;13.40;99.90;;;;;;5453241;26;20050;-63
2024/04/13 06:52:56;;;;;;;10.68;6.30;;;13.40;99.90;;;;;;5453333;26;20000;-63
2024/04/13 06:55:23;;;;;;;10.63;5.68;;;13.40;99.90;;;;;;5454086;26;20035;-62
2024/04/13 06:57:50;;;;;;;11.93;5.90;;;13.50;99.90;;;;;;5451271;26;20014;-63
2024/04/13 07:00:17;;;;;;;9.77;5.38;;;13.50;99.90;;;;;;5453043;26;20022;-62
2024/04/13 07:02:44;;;;;;;8.23;5.28;;;13.50;99.90;;;;;;5452863;26;20017;-62
2024/04/13 07:05:11;;;;;;;9.45;5.05;;;13.50;99.90;;;;;;5452993;26;20367;-63
2024/04/13 07:07:39;;;;;;;13.13;6.22;;;13.60;99.90;;;;;;5452793;26;20011;-62
2024/04/13 07:10:06;;;;;;;8.80;5.28;;;13.60;99.90;;;;;;5452892;26;20531;-62
2024/04/13 07:12:33;;;;;;;11.70;5.40;;;13.70;99.90;;;;;;5455681;26;20007;-62
2024/04/13 07:15:00;;;;;;;13.18;6.10;;;13.70;99.90;;;;;;5456351;26;20019;-62
2024/04/13 07:17:27;;;;;;;11.75;5.72;;;13.80;99.90;;;;;;5456429;26;20439;-62
2024/04/13 07:19:54;;;;;;;11.65;5.80;;;13.80;99.90;;;;;;5456271;26;20471;-62
2024/04/13 07:22:21;;;;;;;9.23;5.82;;;13.80;99.90;;;;;;5456176;26;20401;-62
2024/04/13 07:24:48;;;;;;;9.43;5.03;;;13.90;99.90;;;;;;5455997;26;20019;-62
2024/04/13 07:27:15;;;;;;;8.27;5.50;;;13.90;99.90;;;;;;5456592;26;20131;-62
2024/04/13 07:29:44;;;;;;;8.32;4.93;;;14.00;99.90;;;;;;5456715;26;20048;-64
2024/04/13 07:32:11;;;;;;;14.90;6.28;;;14.10;99.90;;;;;;5456333;26;20014;-64
2024/04/13 07:34:40;;;;;;;11.65;4.85;;;14.20;99.90;;;;;;5456327;26;20014;-62
2024/04/13 07:37:07;;;;;;;9.98;5.55;;;14.30;99.90;;;;;;5456196;26;20032;-64
2024/04/13 07:39:34;;;;;;;8.65;5.38;;;14.30;99.90;;;;;;5454646;26;20003;-64
2024/04/13 07:42:01;;;;;;;8.50;4.90;;;14.30;99.90;;;;;;5456266;26;20003;-66
2024/04/13 07:44:28;;;;;;;8.05;4.50;;;14.30;99.90;;;;;;5456167;26;20018;-64
2024/04/13 07:46:55;;;;;;;7.00;4.72;;;14.40;99.90;;;;;;5455987;26;19999;-65
2024/04/13 07:49:22;;;;;;;9.20;4.63;;;14.50;99.90;;;;;;5456114;26;20110;-64
2024/04/13 07:51:49;;;;;;;12.98;4.82;;;14.60;99.90;;;;;;5455973;26;19999;-64
2024/04/13 07:54:16;;;;;;;8.00;4.75;;;14.60;99.90;;;;;;5455980;26;20007;-61
2024/04/13 07:56:43;;;;;;;8.52;4.57;;;14.60;99.90;;;;;;5455689;26;20018;-60
2024/04/13 07:59:10;;;;;;;8.00;4.47;;;14.60;99.90;;;;;;5456003;26;20002;-61
2024/04/13 08:01:37;;;;;;;7.85;4.90;;;14.70;99.90;;;;;;5455865;26;20014;-61
2024/04/13 08:04:04;;;;;;;9.95;5.22;;;14.70;99.90;;;;;;5456226;26;20047;-61
2024/04/13 08:06:31;;;;;;;7.70;4.22;;;14.70;99.90;;;;;;5455750;26;20483;-61
2024/04/13 08:08:58;;;;;;;9.52;5.35;;;14.80;99.90;;;;;;5456012;26;20014;-61
2024/04/13 08:11:25;;;;;;;7.68;4.80;;;14.90;99.90;;;;;;5455871;26;20003;-61
2024/04/13 08:13:51;;;;;;;9.77;5.30;;;14.90;99.90;;;;;;5455836;26;20078;-61
2024/04/13 08:16:18;;;;;;;9.88;5.53;;;14.90;99.90;;;;;;5455617;26;20003;-60
2024/04/13 08:18:45;;;;;;;9.65;5.25;;;15.00;99.90;;;;;;5453898;26;19999;-61
2024/04/13 08:21:12;;;;;;;8.07;4.90;;;15.00;99.90;;;;;;5455781;26;20440;-61
2024/04/13 08:23:39;;;;;;;7.50;5.43;;;15.00;99.90;;;;;;5455646;26;20387;-60
2024/04/13 08:26:06;;;;;;;11.95;5.57;;;15.10;99.90;;;;;;5455258;26;20464;-61
2024/04/13 08:28:33;;;;;;;9.75;5.68;;;15.20;99.90;;;;;;5455650;26;20021;-61
2024/04/13 08:31:00;;;;;;;9.55;6.35;;;15.20;99.90;;;;;;5455463;26;20444;-60
2024/04/13 08:33:27;;;;;;;12.52;6.63;;;15.30;99.90;;;;;;5455293;26;20018;-60
2024/04/13 08:35:54;;;;;;;12.15;7.18;;;15.30;99.90;;;;;;5455144;26;20026;-62
2024/04/13 08:38:21;;;;;;;11.52;7.20;;;15.30;99.90;;;;;;5455162;26;20529;-62
2024/04/13 08:40:48;;;;;;;10.40;7.22;;;15.30;99.90;;;;;;5453742;26;20018;-63
2024/04/13 08:43:15;;;;;;;10.95;7.35;;;15.40;99.90;;;;;;5455445;26;20014;-64
2024/04/13 08:45:42;;;;;;;14.77;7.72;;;15.40;99.90;;;;;;5455108;26;20010;-66
2024/04/13 08:48:09;;;;;;;9.68;6.70;;;15.50;99.90;;;;;;5455230;26;20007;-66
2024/04/13 08:50:36;;;;;;;13.90;7.28;;;15.50;99.90;;;;;;5455541;26;20504;-66
2024/04/13 08:53:03;;;;;;;13.10;6.80;;;15.50;99.90;;;;;;5455216;26;20014;-66
2024/04/13 08:55:30;;;;;;;10.10;6.28;;;15.60;99.90;;;;;;5455177;26;20011;-64
2024/04/13 08:57:57;;;;;;;9.55;6.03;;;15.70;99.90;;;;;;5455161;26;20007;-66
2024/04/13 09:00:24;;;;;;;8.77;5.65;;;15.80;99.90;;;;;;5455229;26;19999;-66
2024/04/13 09:02:52;;;;;;;9.60;5.50;;;15.80;99.90;;;;;;5455166;26;20022;-64
2024/04/13 09:05:19;;;;;;;12.40;5.07;;;15.90;99.90;;;;;;5454997;26;20080;-66
2024/04/13 09:07:46;;;;;;;11.63;5.28;;;16.00;99.90;;;;;;5454822;26;20462;-64
2024/04/13 09:10:13;;;;;;;9.07;4.57;;;16.00;99.90;;;;;;5454884;26;19999;-64
2024/04/13 09:12:39;;;;;;;8.80;4.78;;;16.10;99.90;;;;;;5454776;26;20463;-66
2024/04/13 09:15:07;;;;;;;7.75;4.88;;;16.10;99.90;;;;;;5453068;26;20003;-66
2024/04/13 09:17:34;;;;;;;9.93;5.05;;;16.20;99.90;;;;;;5454970;26;20520;-64
2024/04/13 09:20:07;;;;;;;9.00;4.75;;;16.20;99.90;;;;;;5454798;26;19998;-63
2024/04/13 09:22:34;;;;;;;8.52;4.68;;;16.20;99.90;;;;;;5454801;26;20002;-64
2024/04/13 09:25:01;;;;;;;8.43;4.47;;;16.10;99.90;;;;;;5454478;26;20014;-64
2024/04/13 09:27:30;;;;;;;10.25;4.78;;;16.10;99.90;;;;;;5454582;26;20014;-63
2024/04/13 09:29:57;;;;;;;9.05;4.40;;;16.10;99.90;;;;;;5454637;26;20348;-64
2024/04/13 09:32:24;;;;;;;8.35;4.22;;;16.20;99.90;;;;;;5454534;26;20013;-64
2024/04/13 09:34:51;;;;;;;7.95;4.47;;;16.30;99.90;;;;;;5453144;26;20409;-64
2024/04/13 09:37:18;;;;;;;8.50;4.30;;;16.30;99.90;;;;;;5454039;26;20014;-63
2024/04/13 09:39:45;;;;;;;8.02;4.20;;;16.40;99.90;;;;;;5454433;26;20083;-63
2024/04/13 09:42:12;;;;;;;7.43;4.20;;;16.40;99.90;;;;;;5454487;26;20440;-62
2024/04/13 09:44:39;;;;;;;8.90;4.25;;;16.50;99.90;;;;;;5454419;26;20003;-62
2024/04/13 09:47:06;;;;;;;8.88;3.50;;;16.50;99.90;;;;;;5451772;26;20459;-63
2024/04/13 09:49:33;;;;;;;8.30;3.75;;;16.50;99.90;;;;;;5454045;26;20019;-63
2024/04/13 09:52:00;;;;;;;12.88;3.95;;;16.60;99.90;;;;;;5453981;26;20325;-63
2024/04/13 09:54:27;;;;;;;8.10;3.83;;;16.60;99.90;;;;;;5453873;26;20085;-62
2024/04/13 09:56:54;;;;;;;9.75;4.60;;;16.60;99.90;;;;;;5453848;26;20015;-63
2024/04/13 09:59:21;;;;;;;9.18;4.05;;;16.70;99.90;;;;;;5453964;26;20014;-62
2024/04/13 10:01:48;;;;;;;6.75;3.20;;;16.70;99.90;;;;;;5454199;26;20010;-62
2024/04/13 10:04:15;;;;;;;8.93;3.58;;;16.80;99.90;;;;;;5454237;26;20080;-62
2024/04/13 10:06:42;;;;;;;6.50;3.42;;;16.90;99.90;;;;;;5454162;26;20139;-63
2024/04/13 10:09:09;;;;;;;6.90;2.95;;;17.00;99.90;;;;;;5454013;26;20007;-62
2024/04/13 10:11:43;;;;;;;7.45;3.20;;;17.10;99.90;;;;;;5454303;26;20027;-62
2024/04/13 10:14:10;;;;;;;7.82;3.38;;;17.20;99.90;;;;;;5454378;26;20017;-62
2024/04/13 10:16:37;;;;;;;8.35;2.63;;;17.20;99.90;;;;;;5454368;26;20003;-62
2024/04/13 10:19:04;;;;;;;7.18;2.78;;;17.20;99.90;;;;;;5453979;26;20007;-63
2024/04/13 10:21:31;;;;;;;6.85;3.10;;;17.30;99.90;;;;;;5453947;26;20471;-64
2024/04/13 10:23:58;;;;;;;8.07;2.90;;;17.30;99.90;;;;;;5452159;26;20018;-65
2024/04/13 10:26:25;;;;;;;9.00;2.90;;;17.40;99.90;;;;;;5453840;26;20010;-64
2024/04/13 10:28:52;;;;;;;6.78;2.72;;;17.50;99.90;;;;;;5453663;26;20004;-65
2024/04/13 10:31:18;;;;;;;5.95;2.88;;;17.50;99.90;;;;;;5453641;26;20397;-64
2024/04/13 10:33:45;;;;;;;8.20;2.97;;;17.60;99.90;;;;;;5453830;26;20009;-65
2024/04/13 10:36:12;;;;;;;6.75;2.88;;;17.70;99.90;;;;;;5453647;26;20010;-65
2024/04/13 10:38:39;;;;;;;6.32;2.95;;;17.80;99.90;;;;;;5453594;26;20013;-65
2024/04/13 10:41:06;;;;;;;5.82;2.58;;;17.90;99.90;;;;;;5453658;26;20464;-64
2024/04/13 10:43:33;;;;;;;5.55;2.35;;;17.90;99.90;;;;;;5453404;26;20332;-64
2024/04/13 10:46:00;;;;;;;9.40;2.47;;;18.00;99.90;;;;;;5451807;26;20409;-64
2024/04/13 10:48:27;;;;;;;6.82;2.42;;;18.10;99.90;;;;;;5453498;26;20010;-64
2024/04/13 10:50:55;;;;;;;6.88;2.20;;;18.20;99.90;;;;;;5453141;26;20003;-65
2024/04/13 10:53:25;;;;;;;10.13;2.78;;;18.20;99.90;;;;;;5453664;26;20029;-65
2024/04/13 10:55:52;;;;;;;6.25;2.42;;;18.30;99.90;;;;;;5453416;26;20014;-66
2024/04/13 10:58:19;;;;;;;6.50;2.40;;;18.20;99.90;;;;;;5453877;26;20006;-66
2024/04/13 11:00:46;;;;;;;6.60;2.42;;;18.30;99.90;;;;;;5453401;26;20003;-65
2024/04/13 11:03:13;;;;;;;6.85;2.47;;;18.40;99.90;;;;;;5453365;26;20042;-65
2024/04/13 11:05:40;;;;;;;5.97;2.35;;;18.50;99.90;;;;;;5453504;26;20003;-64
2024/04/13 11:08:08;;;;;;;8.15;2.38;;;18.50;99.90;;;;;;5454067;26;20440;-65
2024/04/13 11:10:35;;;;;;;6.85;2.45;;;18.50;99.90;;;;;;5453237;26;20018;-61
2024/04/13 11:13:02;;;;;;;6.43;2.53;;;18.50;99.90;;;;;;5453164;26;20133;-61
2024/04/13 11:15:30;;;;;;;6.93;2.30;;;18.50;99.90;;;;;;5453109;26;20532;-61
2024/04/13 11:17:57;;;;;;;6.70;2.30;;;18.50;99.90;;;;;;5452918;26;20007;-60
2024/04/13 11:20:24;;;;;;;6.97;2.30;;;18.40;99.90;;;;;;5452968;26;20003;-61
2024/04/13 11:22:50;;;;;;;7.15;2.60;;;18.50;99.90;;;;;;5453208;26;20017;-60
2024/04/13 11:25:19;;;;;;;5.57;1.90;;;18.50;99.90;;;;;;5450964;26;20002;-60
2024/04/13 11:27:49;;;;;;;8.07;2.20;;;18.50;99.90;;;;;;5452788;26;20007;-60
2024/04/13 11:30:16;;;;;;;6.30;2.40;;;18.60;99.90;;;;;;5452768;26;20003;-60
2024/04/13 11:32:43;;;;;;;5.82;2.00;;;18.70;99.90;;;;;;5452648;26;20075;-60
2024/04/13 11:35:09;;;;;;;7.35;2.10;;;18.70;99.90;;;;;;5452939;26;20011;-61
2024/04/13 11:37:36;;;;;;;8.55;2.20;;;18.80;99.90;;;;;;5452807;26;20013;-61
2024/04/13 11:40:03;;;;;;;6.50;2.30;;;18.90;99.90;;;;;;5452790;26;20017;-60
2024/04/13 11:42:30;;;;;;;6.93;2.35;;;18.90;99.90;;;;;;5452639;26;20018;-60
2024/04/13 11:45:11;;;;;;;7.30;1.90;;;19.00;99.90;;;;;;5452866;26;20459;-60
2024/04/13 11:47:38;;;;;;;5.65;2.25;;;19.00;99.90;;;;;;5452447;26;20463;-60
2024/04/13 11:50:06;;;;;;;6.85;2.80;;;19.00;99.90;;;;;;5452789;26;20018;-61
2024/04/13 11:52:33;;;;;;;6.93;2.33;;;19.10;99.90;;;;;;5452608;26;20007;-61
2024/04/13 11:55:00;;;;;;;7.97;2.30;;;19.10;99.90;;;;;;5452476;26;19998;-61
2024/04/13 11:57:26;;;;;;;7.28;2.45;;;19.10;99.90;;;;;;5453582;26;20074;-61
2024/04/13 11:59:53;;;;;;;5.63;1.88;;;19.20;99.90;;;;;;5456135;26;20067;-61
2024/04/13 12:02:25;;;;;;;5.78;1.67;;;19.20;99.90;;;;;;5454531;26;20639;-60
2024/04/13 12:04:52;;;;;;;5.07;2.13;;;19.20;99.90;;;;;;5456035;26;19998;-61
2024/04/13 12:07:20;;;;;;;4.40;1.85;;;19.20;99.90;;;;;;5455843;26;20406;-62
2024/04/13 12:09:46;;;;;;;5.40;2.20;;;19.30;99.90;;;;;;5455915;26;20011;-62
2024/04/13 12:12:13;;;;;;;5.35;1.98;;;19.40;99.90;;;;;;5456417;26;20019;-63
2024/04/13 12:14:40;;;;;;;8.10;2.13;;;19.50;99.90;;;;;;5455915;26;19994;-63
2024/04/13 12:17:19;;;;;;;4.55;1.73;;;19.50;99.90;;;;;;5455690;26;20011;-63
2024/04/13 12:19:45;;;;;;;9.20;1.85;;;19.50;99.90;;;;;;5455822;26;20076;-63
2024/04/13 12:22:12;;;;;;;5.20;1.83;;;19.50;99.90;;;;;;5456018;26;20002;-63
2024/04/13 12:24:39;;;;;;;6.32;2.00;;;19.50;99.90;;;;;;5453730;26;20031;-62
2024/04/13 12:27:06;;;;;;;6.07;1.85;;;19.60;99.90;;;;;;5455471;26;20014;-62
2024/04/13 12:29:33;;;;;;;6.70;1.80;;;19.70;99.90;;;;;;5455662;26;20006;-63
2024/04/13 12:32:00;;;;;;;5.80;2.10;;;19.70;99.90;;;;;;5455644;26;20014;-63
2024/04/13 12:34:27;;;;;;;5.30;2.00;;;19.70;99.90;;;;;;5455603;26;20083;-62
2024/04/13 12:36:54;;;;;;;5.57;1.80;;;19.70;99.90;;;;;;5455852;26;20006;-62
2024/04/13 12:39:21;;;;;;;5.32;1.90;;;19.70;99.90;;;;;;5455593;26;20071;-62
2024/04/13 12:41:48;;;;;;;5.85;1.90;;;19.80;99.90;;;;;;5455656;26;20006;-62